Time;durP1;ratioP1;P1;durP2;ratioP2;P2;SDS_P1;SDS_P2;PMS_P1;PMS_P2;Temp;Humidity;BMP_temperature;BMP_pressure;BME280_temperature;BME280_humidity;BME280_pressure;Samples;Min_cycle;Max_cycle;Signal;HPM_P1;HPM_P2
2022/01/12 00:00:48;;;;;;;;;;;19.80;43.30;;;;;;5080605;28;19961;-63
2022/01/12 00:03:14;;;;;;;;;;;19.80;43.20;;;;;;5091662;28;19966;-64
2022/01/12 00:05:39;;;;;;;;;;;19.80;43.30;;;;;;5108653;28;19912;-64
2022/01/12 00:08:05;;;;;;;;;;;19.80;43.30;;;;;;5092529;28;19908;-64
2022/01/12 00:10:30;;;;;;;;;;;19.80;43.60;;;;;;5125506;27;19980;-64
2022/01/12 00:12:56;;;;;;;;;;;19.80;43.50;;;;;;5092742;28;19908;-63
2022/01/12 00:15:21;;;;;;;;;;;19.80;43.50;;;;;;5091955;28;20015;-63
2022/01/12 00:17:47;;;;;;;;;;;19.80;43.50;;;;;;5092437;28;19916;-63
2022/01/12 00:20:12;;;;;;;;;;;19.80;43.80;;;;;;5092941;28;19912;-63
2022/01/12 00:22:39;;;;;;;;;;;19.70;43.70;;;;;;5089723;28;19935;-63
2022/01/12 00:25:24;;;;;;;;;;;19.70;43.80;;;;;;5092412;28;19951;-63
2022/01/12 00:33:22;;;;;;;;;;;19.60;43.70;;;;;;5067421;28;20416;-63
2022/01/12 00:35:48;;;;;;;;;;;19.60;44.00;;;;;;5091085;28;19951;-63
2022/01/12 00:38:14;;;;;;;;;;;19.60;43.70;;;;;;5089678;28;20371;-63
2022/01/12 00:40:43;;;;;;;;;;;19.60;43.70;;;;;;5088248;28;19919;-63
2022/01/12 00:43:09;;;;;;;;;;;19.60;43.70;;;;;;5088906;28;19920;-63
2022/01/12 00:45:37;;;;;;;;;;;19.60;43.80;;;;;;5125296;27;20291;-63
2022/01/12 00:48:03;;;;;;;;;;;19.60;43.70;;;;;;5124248;27;19916;-63
2022/01/12 00:50:28;;;;;;;;;;;19.60;43.60;;;;;;5092148;28;19916;-63
2022/01/12 00:52:53;;;;;;;;;;;19.60;43.70;;;;;;5089997;28;19975;-63
2022/01/12 00:55:19;;;;;;;;;;;19.50;43.70;;;;;;5124400;27;19916;-63
2022/01/12 00:57:45;;;;;;;;;;;19.60;43.80;;;;;;5124168;27;19908;-63
2022/01/12 01:00:10;;;;;;;;;;;19.60;43.80;;;;;;5091970;28;19919;-63
2022/01/12 01:02:36;;;;;;;;;;;19.60;43.60;;;;;;5092022;28;20016;-63
2022/01/12 01:05:02;;;;;;;;;;;19.50;43.50;;;;;;5091346;28;20045;-63
2022/01/12 01:07:28;;;;;;;;;;;19.50;43.50;;;;;;5091655;28;19912;-63
2022/01/12 01:10:04;;;;;;;;;;;19.50;43.40;;;;;;5089990;28;19908;-63
2022/01/12 01:12:30;;;;;;;;;;;19.50;43.40;;;;;;5098079;28;19950;-63
2022/01/12 01:25:37;;;;;;;;;;;19.40;43.50;;;;;;5083543;28;19958;-63
2022/01/12 01:28:03;;;;;;;;;;;19.40;43.50;;;;;;5091233;28;20022;-63
2022/01/12 01:30:29;;;;;;;;;;;19.40;43.50;;;;;;5091727;28;19915;-63
2022/01/12 01:32:56;;;;;;;;;;;19.40;43.50;;;;;;5091079;28;19922;-63
2022/01/12 01:35:26;;;;;;;;;;;19.40;43.40;;;;;;5091491;28;19912;-63
2022/01/12 01:37:51;;;;;;;;;;;19.40;43.60;;;;;;5122683;27;20368;-63
2022/01/12 01:40:17;;;;;;;;;;;19.40;43.50;;;;;;5090721;28;19923;-63
2022/01/12 01:43:06;;;;;;;;;;;19.40;43.50;;;;;;5090995;28;20049;-63
2022/01/12 01:53:41;;;;;;;;;;;19.40;43.60;;;;;;5093619;28;19914;-63
2022/01/12 01:56:06;;;;;;;;;;;19.40;43.60;;;;;;5116113;27;20010;-63
2022/01/12 01:58:32;;;;;;;;;;;19.40;43.60;;;;;;5085305;28;19916;-63
2022/01/12 02:00:57;;;;;;;;;;;19.40;43.40;;;;;;5086853;28;19969;-63
2022/01/12 02:03:27;;;;;;;;;;;19.40;43.60;;;;;;5090605;28;19920;-63
2022/01/12 02:05:53;;;;;;;;;;;19.40;43.60;;;;;;5086666;28;19923;-63
2022/01/12 02:08:18;;;;;;;;;;;19.40;43.80;;;;;;5088687;28;19912;-63
2022/01/12 02:10:44;;;;;;;;;;;19.30;43.80;;;;;;5090937;28;19955;-63
2022/01/12 02:13:10;;;;;;;;;;;19.30;43.70;;;;;;5090135;28;19915;-64
2022/01/12 02:15:35;;;;;;;;;;;19.30;43.60;;;;;;5094141;28;19912;-64
2022/01/12 02:18:20;;;;;;;;;;;19.30;43.80;;;;;;5094527;28;19955;-63
2022/01/12 02:39:50;;;;;;;;;;;19.50;43.30;;;;;;5094242;28;19943;-63
2022/01/12 02:40:05;;;;;;;;;;;19.70;43.20;;;;;;5093607;28;19908;-63
2022/01/12 02:42:31;;;;;;;;;;;19.80;42.90;;;;;;5093424;28;20273;-63
2022/01/12 02:50:54;;;;;;;;;;;20.00;42.40;;;;;;5095000;28;20174;-63
2022/01/12 02:56:03;;;;;;;;;;;20.10;42.30;;;;;;5093888;28;19958;-64
2022/01/12 02:58:29;;;;;;;;;;;20.20;42.20;;;;;;5094155;28;19913;-64
2022/01/12 03:03:41;;;;;;;;;;;20.20;42.00;;;;;;5089568;28;19931;-63
2022/01/12 03:06:08;;;;;;;;;;;20.20;42.00;;;;;;5094321;28;19951;-63
2022/01/12 03:08:37;;;;;;;;;;;20.20;42.00;;;;;;5124429;27;19916;-63
2022/01/12 03:11:09;;;;;;;;;;;20.20;42.00;;;;;;5089662;28;20384;-63
2022/01/12 03:13:35;;;;;;;;;;;20.20;41.90;;;;;;5093628;28;19912;-63
2022/01/12 03:16:02;;;;;;;;;;;20.20;41.90;;;;;;5127144;27;19908;-63
2022/01/12 03:18:27;;;;;;;;;;;20.20;41.90;;;;;;5093832;28;19927;-63
2022/01/12 03:20:53;;;;;;;;;;;20.30;41.90;;;;;;5093923;28;19930;-63
2022/01/12 03:23:18;;;;;;;;;;;20.30;41.70;;;;;;5092611;28;19932;-63
2022/01/12 03:25:44;;;;;;;;;;;20.30;41.70;;;;;;5091421;28;20383;-63
2022/01/12 03:28:09;;;;;;;;;;;20.40;42.20;;;;;;5093239;28;19912;-63
2022/01/12 03:30:51;;;;;;;;;;;20.40;41.30;;;;;;5094178;28;19916;-63
2022/01/12 03:36:22;;;;;;;;;;;20.40;41.20;;;;;;5100508;28;20013;-63
2022/01/12 03:38:40;;;;;;;;;;;20.40;41.10;;;;;;5088224;28;19970;-63
2022/01/12 03:41:05;;;;;;;;;;;20.50;41.20;;;;;;5093609;28;20380;-63
2022/01/12 03:43:30;;;;;;;;;;;20.50;41.00;;;;;;5093027;28;19927;-63
2022/01/12 03:45:56;;;;;;;;;;;20.50;41.10;;;;;;5093144;28;19921;-63
2022/01/12 03:48:21;;;;;;;;;;;20.40;41.30;;;;;;5093084;28;19916;-63
2022/01/12 03:50:48;;;;;;;;;;;20.40;41.40;;;;;;5093260;28;19916;-63
2022/01/12 03:53:14;;;;;;;;;;;20.40;41.60;;;;;;5092499;28;19916;-63
2022/01/12 03:55:40;;;;;;;;;;;20.30;41.60;;;;;;5075336;28;20414;-63
2022/01/12 03:58:06;;;;;;;;;;;20.30;41.70;;;;;;5080288;28;19916;-63
2022/01/12 04:00:31;;;;;;;;;;;20.30;41.80;;;;;;5091668;28;19916;-63
2022/01/12 04:02:57;;;;;;;;;;;20.30;42.00;;;;;;5092275;28;19923;-63
2022/01/12 04:05:39;;;;;;;;;;;20.20;42.00;;;;;;5093370;28;19909;-63
2022/01/12 04:08:20;;;;;;;;;;;20.20;42.10;;;;;;5120671;27;20014;-63
2022/01/12 04:11:04;;;;;;;;;;;20.10;42.20;;;;;;5093074;28;20367;-63
2022/01/12 04:13:30;;;;;;;;;;;20.00;42.40;;;;;;5091233;28;20260;-63
2022/01/12 04:15:56;;;;;;;;;;;19.90;42.50;;;;;;5117003;27;19923;-63
2022/01/12 04:18:22;;;;;;;;;;;19.80;42.30;;;;;;5125509;27;19916;-62
2022/01/12 04:20:50;;;;;;;;;;;19.80;42.50;;;;;;5125533;27;19912;-63
2022/01/12 04:23:18;;;;;;;;;;;19.80;42.80;;;;;;5087855;28;19920;-63
2022/01/12 04:25:48;;;;;;;;;;;19.80;42.70;;;;;;5091285;28;20315;-63
2022/01/12 04:28:13;;;;;;;;;;;19.80;42.80;;;;;;5090788;28;20292;-63
2022/01/12 04:30:39;;;;;;;;;;;19.80;42.70;;;;;;5092800;28;20193;-63
2022/01/12 04:33:04;;;;;;;;;;;19.90;42.70;;;;;;5091418;28;19986;-63
2022/01/12 04:35:33;;;;;;;;;;;19.90;42.70;;;;;;5091315;28;19961;-64
2022/01/12 04:37:59;;;;;;;;;;;19.90;42.70;;;;;;5090882;28;20436;-63
2022/01/12 04:40:24;;;;;;;;;;;19.90;42.70;;;;;;5091881;28;19912;-63
2022/01/12 04:42:52;;;;;;;;;;;19.90;42.70;;;;;;5118430;27;19912;-63
2022/01/12 04:45:32;;;;;;;;;;;20.00;42.60;;;;;;5092144;28;19916;-63
2022/01/12 04:48:01;;;;;;;;;;;20.00;42.50;;;;;;5089903;28;19915;-63
2022/01/12 04:50:28;;;;;;;;;;;20.00;42.50;;;;;;5081209;28;19916;-63
2022/01/12 04:52:53;;;;;;;;;;;20.00;42.50;;;;;;5092011;28;19912;-63
2022/01/12 04:55:19;;;;;;;;;;;20.00;42.50;;;;;;5091394;28;20372;-63
2022/01/12 04:57:44;;;;;;;;;;;20.00;42.50;;;;;;5091795;28;20279;-64
2022/01/12 05:00:17;;;;;;;;;;;20.00;42.60;;;;;;5124260;27;19959;-64
2022/01/12 05:08:24;;;;;;;;;;;20.00;42.60;;;;;;5090448;28;19919;-63
2022/01/12 05:13:34;;;;;;;;;;;20.00;42.60;;;;;;5091393;28;20065;-63
2022/01/12 05:16:00;;;;;;;;;;;20.00;42.60;;;;;;5090719;28;19981;-63
2022/01/12 05:18:29;;;;;;;;;;;20.00;42.50;;;;;;5089282;28;19920;-63
2022/01/12 05:20:55;;;;;;;;;;;20.10;42.50;;;;;;5124345;27;19912;-63
2022/01/12 05:23:20;;;;;;;;;;;20.10;42.50;;;;;;5120605;27;19920;-63
2022/01/12 05:25:48;;;;;;;;;;;20.10;42.30;;;;;;5091820;28;19908;-63
2022/01/12 05:28:14;;;;;;;;;;;20.10;42.40;;;;;;5120933;27;20285;-63
2022/01/12 05:30:39;;;;;;;;;;;20.10;42.30;;;;;;5090268;28;19908;-63
2022/01/12 05:33:05;;;;;;;;;;;20.10;42.30;;;;;;5090606;28;19919;-63
2022/01/12 05:35:33;;;;;;;;;;;20.10;42.30;;;;;;5101516;28;19939;-63
2022/01/12 05:38:02;;;;;;;;;;;20.10;42.30;;;;;;5097261;28;20286;-63
2022/01/12 05:40:27;;;;;;;;;;;20.10;42.30;;;;;;5091138;28;20200;-63
2022/01/12 05:42:54;;;;;;;;;;;20.10;42.20;;;;;;5090589;28;20391;-63
2022/01/12 05:45:21;;;;;;;;;;;20.20;42.30;;;;;;5091445;28;20275;-63
2022/01/12 05:50:12;;;;;;;;;;;20.10;42.20;;;;;;5091593;28;19908;-63
2022/01/12 05:52:37;;;;;;;;;;;20.10;42.20;;;;;;5123913;27;19916;-63
2022/01/12 05:55:03;;;;;;;;;;;20.10;42.30;;;;;;5089878;28;19912;-63
2022/01/12 05:57:30;;;;;;;;;;;20.10;42.20;;;;;;5113644;27;20342;-63
2022/01/12 05:59:58;;;;;;;;;;;20.10;42.30;;;;;;5084277;28;19919;-63
2022/01/12 06:02:24;;;;;;;;;;;20.10;42.20;;;;;;5090397;28;19922;-63
2022/01/12 06:04:49;;;;;;;;;;;20.10;42.30;;;;;;5072511;28;19916;-63
2022/01/12 06:07:15;;;;;;;;;;;20.10;42.30;;;;;;5091433;28;19991;-63
2022/01/12 06:09:40;;;;;;;;;;;20.10;42.30;;;;;;5088934;28;20060;-63
2022/01/12 06:12:06;;;;;;;;;;;20.10;42.30;;;;;;5091048;28;19916;-63
2022/01/12 06:14:31;;;;;;;;;;;20.10;42.30;;;;;;5083436;28;19923;-63
2022/01/12 06:16:57;;;;;;;;;;;20.00;42.30;;;;;;5090676;28;20288;-63
2022/01/12 06:19:22;;;;;;;;;;;20.10;42.40;;;;;;5090489;28;19916;-63
2022/01/12 06:21:48;;;;;;;;;;;20.00;42.30;;;;;;5090139;28;20010;-64
2022/01/12 06:24:13;;;;;;;;;;;20.00;42.30;;;;;;5089551;28;19931;-63
2022/01/12 06:26:39;;;;;;;;;;;20.00;42.40;;;;;;5107343;28;19917;-63
2022/01/12 06:29:23;;;;;;;;;;;19.90;42.40;;;;;;5090470;28;20376;-63
2022/01/12 06:31:50;;;;;;;;;;;19.90;42.50;;;;;;5097374;28;19920;-63
2022/01/12 06:34:15;;;;;;;;;;;19.90;42.50;;;;;;5090285;28;20354;-63
2022/01/12 06:36:41;;;;;;;;;;;19.90;42.50;;;;;;5090571;28;19912;-63
2022/01/12 06:39:07;;;;;;;;;;;19.90;42.50;;;;;;5089625;28;19995;-63
2022/01/12 06:41:33;;;;;;;;;;;19.90;42.50;;;;;;5089088;28;19909;-64
2022/01/12 06:43:58;;;;;;;;;;;19.90;42.40;;;;;;5087703;28;19950;-64
2022/01/12 06:46:28;;;;;;;;;;;19.90;42.40;;;;;;5089936;28;19916;-63
2022/01/12 06:48:53;;;;;;;;;;;19.90;42.40;;;;;;5089343;28;19908;-63
2022/01/12 06:51:19;;;;;;;;;;;19.90;42.40;;;;;;5123725;27;19927;-63
2022/01/12 06:53:44;;;;;;;;;;;19.90;42.50;;;;;;5089721;28;19916;-63
2022/01/12 06:56:10;;;;;;;;;;;19.90;42.60;;;;;;5090897;28;19957;-63
2022/01/12 06:58:35;;;;;;;;;;;19.90;42.50;;;;;;5090397;28;19916;-63
2022/01/12 07:01:01;;;;;;;;;;;19.90;42.50;;;;;;5093896;28;20304;-63
2022/01/12 07:03:26;;;;;;;;;;;19.90;42.60;;;;;;5093848;28;20276;-63
2022/01/12 07:05:51;;;;;;;;;;;19.90;42.50;;;;;;5094018;28;19912;-63
2022/01/12 07:08:17;;;;;;;;;;;19.90;42.60;;;;;;5093061;28;19912;-63
2022/01/12 07:10:42;;;;;;;;;;;19.90;42.60;;;;;;5094141;28;19915;-63
2022/01/12 07:13:13;;;;;;;;;;;19.90;42.60;;;;;;5093879;28;19992;-63
2022/01/12 07:15:39;;;;;;;;;;;19.90;42.60;;;;;;5093719;28;19912;-63
2022/01/12 07:18:05;;;;;;;;;;;19.90;42.70;;;;;;5092043;28;19970;-63
2022/01/12 07:20:30;;;;;;;;;;;19.90;42.50;;;;;;5094152;28;19951;-63
2022/01/12 07:22:56;;;;;;;;;;;19.90;42.50;;;;;;5088841;28;19989;-64
2022/01/12 07:25:22;;;;;;;;;;;20.00;42.60;;;;;;5074783;28;20421;-63
2022/01/12 07:27:47;;;;;;;;;;;19.90;42.60;;;;;;5090613;28;20279;-63
2022/01/12 07:30:12;;;;;;;;;;;19.90;42.60;;;;;;5090455;28;19915;-63
2022/01/12 07:32:38;;;;;;;;;;;19.90;42.60;;;;;;5093035;28;19916;-63
2022/01/12 07:35:04;;;;;;;;;;;20.00;42.70;;;;;;5093546;28;20006;-63
2022/01/12 07:37:30;;;;;;;;;;;20.00;42.60;;;;;;5092367;28;19969;-63
2022/01/12 07:39:55;;;;;;;;;;;20.00;42.60;;;;;;5092011;28;19915;-63
2022/01/12 07:42:21;;;;;;;;;;;20.10;42.60;;;;;;5091871;28;20321;-63
2022/01/12 07:44:46;;;;;;;;;;;20.10;42.60;;;;;;5093351;28;20318;-63
2022/01/12 07:47:11;;;;;;;;;;;20.10;42.60;;;;;;5092044;28;20006;-63
2022/01/12 07:49:37;;;;;;;;;;;20.10;42.50;;;;;;5092519;28;19919;-63
2022/01/12 07:52:04;;;;;;;;;;;20.10;42.50;;;;;;5093361;28;19908;-64
2022/01/12 07:54:29;;;;;;;;;;;20.10;42.50;;;;;;5092205;28;20306;-64
2022/01/12 07:56:55;;;;;;;;;;;20.10;42.40;;;;;;5094906;28;19908;-63
2022/01/12 07:59:20;;;;;;;;;;;20.10;42.50;;;;;;5091425;28;19919;-64
2022/01/12 08:01:45;;;;;;;;;;;20.10;42.40;;;;;;5083493;28;19920;-64
2022/01/12 08:04:11;;;;;;;;;;;20.10;42.40;;;;;;5124918;27;19976;-64
2022/01/12 08:06:36;;;;;;;;;;;20.20;42.60;;;;;;5124757;27;20283;-64
2022/01/12 08:09:02;;;;;;;;;;;20.40;42.50;;;;;;5090293;28;20364;-64
2022/01/12 08:11:29;;;;;;;;;;;20.60;42.10;;;;;;5107561;27;20394;-64
2022/01/12 08:13:54;;;;;;;;;;;20.90;41.80;;;;;;5090965;28;20314;-64
2022/01/12 08:16:20;;;;;;;;;;;21.10;41.30;;;;;;5088877;28;19924;-64
2022/01/12 08:18:45;;;;;;;;;;;21.40;41.10;;;;;;5091780;28;19966;-64
2022/01/12 08:21:11;;;;;;;;;;;21.50;40.80;;;;;;5091153;28;19908;-64
2022/01/12 08:23:38;;;;;;;;;;;21.70;40.60;;;;;;5090816;28;22340;-64
2022/01/12 08:26:03;;;;;;;;;;;21.70;40.40;;;;;;5091236;28;19940;-64
2022/01/12 08:28:29;;;;;;;;;;;21.80;40.20;;;;;;5125016;27;19961;-64
2022/01/12 08:30:54;;;;;;;;;;;22.00;40.20;;;;;;5091077;28;19924;-65
2022/01/12 08:33:21;;;;;;;;;;;22.00;39.90;;;;;;5122549;27;20184;-65
2022/01/12 08:35:47;;;;;;;;;;;22.10;39.90;;;;;;5092038;28;20314;-65
2022/01/12 08:38:12;;;;;;;;;;;22.10;39.90;;;;;;5089830;28;19977;-65
2022/01/12 08:40:38;;;;;;;;;;;22.20;39.90;;;;;;5093879;28;19919;-65
2022/01/12 08:43:06;;;;;;;;;;;22.20;39.70;;;;;;5107355;28;19919;-65
2022/01/12 08:45:32;;;;;;;;;;;22.30;39.60;;;;;;5087362;28;19955;-65
2022/01/12 08:47:57;;;;;;;;;;;22.30;39.60;;;;;;5098337;28;20324;-64
2022/01/12 08:50:23;;;;;;;;;;;22.30;39.60;;;;;;5126619;27;19938;-64
2022/01/12 08:52:48;;;;;;;;;;;22.40;39.70;;;;;;5091134;28;20012;-63
2022/01/12 08:55:18;;;;;;;;;;;22.40;39.70;;;;;;5091378;28;20295;-64
2022/01/12 08:57:43;;;;;;;;;;;22.40;39.70;;;;;;5091456;28;19912;-64
2022/01/12 09:00:09;;;;;;;;;;;22.40;39.60;;;;;;5092002;28;19916;-64
2022/01/12 09:02:35;;;;;;;;;;;22.40;39.50;;;;;;5119559;27;19920;-64
2022/01/12 09:05:00;;;;;;;;;;;22.50;39.60;;;;;;5090410;28;20280;-64
2022/01/12 09:07:26;;;;;;;;;;;22.50;39.50;;;;;;5098742;28;19970;-64
2022/01/12 09:09:52;;;;;;;;;;;22.50;39.50;;;;;;5091123;28;19955;-65
2022/01/12 09:12:17;;;;;;;;;;;22.50;39.60;;;;;;5091859;28;20364;-64
2022/01/12 09:14:43;;;;;;;;;;;22.50;39.60;;;;;;5089642;28;20314;-64
2022/01/12 09:17:13;;;;;;;;;;;22.50;39.60;;;;;;5090500;28;19973;-64
2022/01/12 09:19:38;;;;;;;;;;;22.50;39.60;;;;;;5090355;28;20379;-64
2022/01/12 09:22:04;;;;;;;;;;;22.50;39.60;;;;;;5080093;28;19916;-64
2022/01/12 09:24:29;;;;;;;;;;;22.50;39.60;;;;;;5078777;28;19931;-64
2022/01/12 09:26:54;;;;;;;;;;;22.60;39.60;;;;;;5121861;27;20030;-64
2022/01/12 09:29:20;;;;;;;;;;;22.60;39.60;;;;;;5124169;27;19914;-64
2022/01/12 09:31:45;;;;;;;;;;;22.60;39.60;;;;;;5090460;28;19981;-64
2022/01/12 09:34:11;;;;;;;;;;;22.60;39.40;;;;;;5122063;27;19923;-64
2022/01/12 09:36:36;;;;;;;;;;;22.60;39.40;;;;;;5083311;28;19934;-65
2022/01/12 09:39:02;;;;;;;;;;;22.60;39.40;;;;;;5089110;28;19916;-65
2022/01/12 09:41:27;;;;;;;;;;;22.60;39.50;;;;;;5087960;28;19923;-65
2022/01/12 09:43:53;;;;;;;;;;;22.60;39.50;;;;;;5090086;28;20295;-65
2022/01/12 09:46:21;;;;;;;;;;;22.60;39.60;;;;;;5089806;28;19951;-64
2022/01/12 09:48:47;;;;;;;;;;;22.60;39.70;;;;;;5089245;28;19916;-64
2022/01/12 09:51:12;;;;;;;;;;;22.60;39.60;;;;;;5090635;28;19912;-64
2022/01/12 09:53:38;;;;;;;;;;;22.60;39.70;;;;;;5085518;28;19912;-64
2022/01/12 09:56:09;;;;;;;;;;;22.60;39.60;;;;;;5088848;28;20320;-64
2022/01/12 09:58:34;;;;;;;;;;;22.60;39.70;;;;;;5119539;27;19923;-65
2022/01/12 10:01:00;;;;;;;;;;;22.70;39.70;;;;;;5090148;28;20322;-65
2022/01/12 10:03:27;;;;;;;;;;;22.60;39.60;;;;;;5087864;28;20291;-64
2022/01/12 10:05:52;;;;;;;;;;;22.70;39.80;;;;;;5121951;27;19927;-65
2022/01/12 10:08:18;;;;;;;;;;;22.70;39.70;;;;;;5088780;28;20307;-65
2022/01/12 10:10:49;;;;;;;;;;;22.70;39.80;;;;;;5088180;28;20417;-65
2022/01/12 10:13:23;;;;;;;;;;;22.80;39.80;;;;;;5091262;28;19912;-65
2022/01/12 10:15:54;;;;;;;;;;;22.80;39.60;;;;;;5088791;28;19957;-65
2022/01/12 10:18:22;;;;;;;;;;;22.80;39.70;;;;;;5090121;28;19920;-65
2022/01/12 10:20:48;;;;;;;;;;;22.80;39.70;;;;;;5089117;28;20280;-66
2022/01/12 10:23:15;;;;;;;;;;;22.80;39.80;;;;;;5087466;28;19924;-65
2022/01/12 10:25:45;;;;;;;;;;;22.80;39.80;;;;;;5087614;28;19908;-65
2022/01/12 10:28:12;;;;;;;;;;;22.90;39.70;;;;;;5086255;28;20368;-66
2022/01/12 10:30:38;;;;;;;;;;;22.90;39.70;;;;;;5088596;28;19913;-65
2022/01/12 10:33:03;;;;;;;;;;;22.80;39.60;;;;;;5088970;28;19915;-65
2022/01/12 10:35:29;;;;;;;;;;;22.80;39.60;;;;;;5090530;28;19987;-64
2022/01/12 10:38:14;;;;;;;;;;;22.80;39.70;;;;;;5091738;28;20407;-65
2022/01/12 10:40:48;;;;;;;;;;;22.90;39.80;;;;;;5093510;28;19920;-64
2022/01/12 10:43:30;;;;;;;;;;;22.90;39.60;;;;;;5091958;28;19943;-64
2022/01/12 10:45:56;;;;;;;;;;;22.90;39.70;;;;;;5091347;28;19916;-64
2022/01/12 10:48:23;;;;;;;;;;;22.90;39.70;;;;;;5091948;28;19985;-64
2022/01/12 10:50:55;;;;;;;;;;;22.90;39.80;;;;;;5091930;28;20006;-63
2022/01/12 10:53:27;;;;;;;;;;;22.90;39.90;;;;;;5107081;28;19912;-64
2022/01/12 10:56:03;;;;;;;;;;;22.80;39.80;;;;;;5090949;28;19946;-64
2022/01/12 10:58:28;;;;;;;;;;;22.90;39.90;;;;;;5093238;28;20482;-64
2022/01/12 11:00:54;;;;;;;;;;;22.80;39.80;;;;;;5127311;27;19912;-63
2022/01/12 11:03:19;;;;;;;;;;;22.80;39.80;;;;;;5119333;27;20018;-64
2022/01/12 11:05:44;;;;;;;;;;;22.90;39.90;;;;;;5093262;28;20021;-64
2022/01/12 11:08:10;;;;;;;;;;;22.90;39.80;;;;;;5091345;28;21665;-65
2022/01/12 11:10:35;;;;;;;;;;;22.90;39.70;;;;;;5092295;28;19919;-65
2022/01/12 11:13:01;;;;;;;;;;;23.00;39.60;;;;;;5091791;28;20379;-64
2022/01/12 11:15:26;;;;;;;;;;;23.00;39.60;;;;;;5091892;28;20346;-63
2022/01/12 11:17:52;;;;;;;;;;;22.90;39.60;;;;;;5090167;28;20080;-65
2022/01/12 11:20:24;;;;;;;;;;;22.90;39.60;;;;;;5092062;28;19912;-64
2022/01/12 11:22:58;;;;;;;;;;;22.90;39.40;;;;;;5090994;28;19924;-64
2022/01/12 11:25:43;;;;;;;;;;;22.80;39.20;;;;;;5092882;28;20001;-64
2022/01/12 11:28:09;;;;;;;;;;;22.80;39.30;;;;;;5093701;28;19912;-64
2022/01/12 11:30:34;;;;;;;;;;;22.90;39.40;;;;;;5093951;28;19912;-64
2022/01/12 11:33:01;;;;;;;;;;;22.80;39.30;;;;;;5093708;28;20327;-64
2022/01/12 11:35:30;;;;;;;;;;;22.90;39.40;;;;;;5093567;28;20490;-64
2022/01/12 11:37:59;;;;;;;;;;;22.90;39.40;;;;;;5093540;28;19946;-65
2022/01/12 11:40:52;;;;;;;;;;;22.80;39.40;;;;;;5093420;28;19912;-64
2022/01/12 11:43:18;;;;;;;;;;;22.80;39.40;;;;;;5093092;28;20006;-63
2022/01/12 11:45:44;;;;;;;;;;;22.80;39.40;;;;;;5092976;28;20349;-64
2022/01/12 11:48:09;;;;;;;;;;;22.80;39.40;;;;;;5126307;27;19922;-64
2022/01/12 11:50:35;;;;;;;;;;;22.80;39.40;;;;;;5091854;28;19986;-64
2022/01/12 11:53:00;;;;;;;;;;;22.80;39.50;;;;;;5099306;27;19977;-64
2022/01/12 11:55:30;;;;;;;;;;;22.80;39.40;;;;;;5098213;28;20320;-64
2022/01/12 11:58:01;;;;;;;;;;;22.80;39.40;;;;;;5125839;27;19908;-64
2022/01/12 12:00:30;;;;;;;;;;;22.90;39.50;;;;;;5096266;27;20069;-64
2022/01/12 12:02:56;;;;;;;;;;;22.80;39.40;;;;;;5086350;28;20334;-64
2022/01/12 12:05:22;;;;;;;;;;;22.80;39.40;;;;;;5092905;28;19961;-64
2022/01/12 12:07:54;;;;;;;;;;;22.90;39.40;;;;;;5093066;28;19915;-64
2022/01/12 12:10:24;;;;;;;;;;;22.90;39.30;;;;;;5127315;27;19912;-63
2022/01/12 12:12:50;;;;;;;;;;;22.90;39.40;;;;;;5093645;28;20010;-64
2022/01/12 12:15:15;;;;;;;;;;;22.90;39.30;;;;;;5125480;27;20414;-64
2022/01/12 12:17:41;;;;;;;;;;;22.90;39.30;;;;;;5125634;27;19923;-64
2022/01/12 12:20:07;;;;;;;;;;;22.90;39.30;;;;;;5092707;28;20284;-64
2022/01/12 12:22:34;;;;;;;;;;;22.90;39.30;;;;;;5125139;27;19908;-64
2022/01/12 12:25:01;;;;;;;;;;;22.90;39.30;;;;;;5124813;27;19919;-63
2022/01/12 12:27:27;;;;;;;;;;;22.90;39.20;;;;;;5125289;27;19984;-64
2022/01/12 12:29:52;;;;;;;;;;;22.90;39.20;;;;;;5092738;28;20289;-65
2022/01/12 12:32:18;;;;;;;;;;;22.90;39.20;;;;;;5123469;27;20411;-64
2022/01/12 12:34:44;;;;;;;;;;;22.90;39.30;;;;;;5125178;27;20024;-64
2022/01/12 12:37:10;;;;;;;;;;;22.90;39.20;;;;;;5092656;28;19916;-64
2022/01/12 12:39:37;;;;;;;;;;;22.90;39.20;;;;;;5118193;27;20010;-63
2022/01/12 12:42:03;;;;;;;;;;;22.90;39.30;;;;;;5097858;28;19991;-64
2022/01/12 12:44:29;;;;;;;;;;;22.90;39.20;;;;;;5092281;28;19912;-64
2022/01/12 12:47:04;;;;;;;;;;;22.90;39.20;;;;;;5089787;28;19912;-63
2022/01/12 12:49:30;;;;;;;;;;;22.90;39.20;;;;;;5109480;27;20372;-65
2022/01/12 12:52:02;;;;;;;;;;;22.90;39.10;;;;;;5088567;28;19919;-64
2022/01/12 12:54:27;;;;;;;;;;;22.90;39.20;;;;;;5091469;28;19931;-64
2022/01/12 12:56:59;;;;;;;;;;;22.90;39.30;;;;;;5091933;28;19912;-64
2022/01/12 12:59:24;;;;;;;;;;;22.90;39.30;;;;;;5095501;28;20015;-64
2022/01/12 13:01:49;;;;;;;;;;;22.80;39.20;;;;;;5090370;28;20006;-64
2022/01/12 13:04:19;;;;;;;;;;;22.90;39.30;;;;;;5092159;28;19915;-64
2022/01/12 13:06:46;;;;;;;;;;;22.90;39.20;;;;;;5092311;28;19912;-64
2022/01/12 13:09:13;;;;;;;;;;;22.90;39.20;;;;;;5089829;28;19912;-64
2022/01/12 13:11:40;;;;;;;;;;;22.90;39.20;;;;;;5124429;27;19915;-64
2022/01/12 13:14:06;;;;;;;;;;;22.90;39.20;;;;;;5091963;28;19935;-64
2022/01/12 13:16:32;;;;;;;;;;;22.90;39.20;;;;;;5124644;27;19909;-64
2022/01/12 13:19:06;;;;;;;;;;;22.90;39.20;;;;;;5091550;28;19916;-64
2022/01/12 13:21:32;;;;;;;;;;;22.90;39.20;;;;;;5098379;28;19908;-64
2022/01/12 13:23:57;;;;;;;;;;;22.90;39.10;;;;;;5110341;27;19916;-64
2022/01/12 13:26:24;;;;;;;;;;;22.90;39.10;;;;;;5083624;28;20432;-63
2022/01/12 13:28:50;;;;;;;;;;;22.90;39.10;;;;;;5096561;28;19963;-64
2022/01/12 13:31:16;;;;;;;;;;;22.90;39.10;;;;;;5124064;27;19995;-64
2022/01/12 13:33:43;;;;;;;;;;;22.90;39.10;;;;;;5129050;27;19913;-64
2022/01/12 13:36:11;;;;;;;;;;;23.00;39.10;;;;;;5091824;28;19946;-64
2022/01/12 13:38:37;;;;;;;;;;;22.90;39.10;;;;;;5090415;28;20496;-64
2022/01/12 13:41:06;;;;;;;;;;;22.90;39.10;;;;;;5091444;28;20003;-64
2022/01/12 13:43:31;;;;;;;;;;;23.00;39.10;;;;;;5089975;28;19959;-64
2022/01/12 13:46:11;;;;;;;;;;;23.00;39.00;;;;;;5094691;28;19912;-64
2022/01/12 13:48:36;;;;;;;;;;;23.00;39.00;;;;;;5096608;28;19959;-64
2022/01/12 13:51:03;;;;;;;;;;;23.00;39.00;;;;;;5091492;28;20009;-63
2022/01/12 13:53:36;;;;;;;;;;;23.00;39.00;;;;;;5090299;28;19912;-64
2022/01/12 13:56:02;;;;;;;;;;;23.00;39.00;;;;;;5091611;28;20049;-64
2022/01/12 13:58:27;;;;;;;;;;;23.00;39.00;;;;;;5089333;28;20003;-64
2022/01/12 14:01:19;;;;;;;;;;;23.10;39.00;;;;;;5089783;28;19918;-65
2022/01/12 14:03:51;;;;;;;;;;;23.00;38.90;;;;;;5079572;28;19924;-65
2022/01/12 14:06:18;;;;;;;;;;;23.00;38.90;;;;;;5098145;28;20003;-65
2022/01/12 14:08:53;;;;;;;;;;;23.00;38.90;;;;;;5120382;27;19953;-65
2022/01/12 14:11:19;;;;;;;;;;;23.10;38.90;;;;;;5098400;28;20455;-65
2022/01/12 14:13:45;;;;;;;;;;;23.10;39.00;;;;;;5093258;28;19908;-64
2022/01/12 14:16:11;;;;;;;;;;;23.00;39.00;;;;;;5098194;28;19912;-64
2022/01/12 14:18:36;;;;;;;;;;;23.00;39.10;;;;;;5093679;28;19997;-65
2022/01/12 14:21:20;;;;;;;;;;;23.10;39.20;;;;;;5127976;27;20327;-64
2022/01/12 14:23:46;;;;;;;;;;;23.10;39.10;;;;;;5092254;28;20295;-65
2022/01/12 14:26:25;;;;;;;;;;;23.10;39.10;;;;;;5094511;28;19912;-64
2022/01/12 14:28:50;;;;;;;;;;;23.10;39.00;;;;;;5127428;27;19912;-64
2022/01/12 14:31:16;;;;;;;;;;;23.10;39.10;;;;;;5126260;27;20360;-64
2022/01/12 14:33:41;;;;;;;;;;;23.10;39.10;;;;;;5094379;28;19916;-64
2022/01/12 14:36:07;;;;;;;;;;;23.10;39.00;;;;;;5092085;28;19912;-64
2022/01/12 14:38:32;;;;;;;;;;;23.10;39.10;;;;;;5090503;28;19916;-64
2022/01/12 14:40:57;;;;;;;;;;;23.10;39.30;;;;;;5127296;27;19914;-64
2022/01/12 14:43:28;;;;;;;;;;;23.10;39.10;;;;;;5094039;28;19922;-64
2022/01/12 14:45:53;;;;;;;;;;;23.10;39.10;;;;;;5125987;27;19916;-64
2022/01/12 14:48:22;;;;;;;;;;;23.10;39.20;;;;;;5088611;28;20339;-65
2022/01/12 14:50:48;;;;;;;;;;;23.10;39.30;;;;;;5092648;28;19915;-65
2022/01/12 14:53:13;;;;;;;;;;;23.10;39.20;;;;;;5126086;27;20253;-64
2022/01/12 14:55:39;;;;;;;;;;;23.10;39.20;;;;;;5094240;28;19951;-64
2022/01/12 14:58:04;;;;;;;;;;;23.10;39.20;;;;;;5120676;27;19916;-64
2022/01/12 15:00:34;;;;;;;;;;;23.10;39.20;;;;;;5092235;28;19920;-65
2022/01/12 15:03:00;;;;;;;;;;;23.10;39.20;;;;;;5084740;28;19916;-64
2022/01/12 15:05:26;;;;;;;;;;;23.10;39.20;;;;;;5126357;27;20429;-64
2022/01/12 15:07:52;;;;;;;;;;;23.10;39.10;;;;;;5074572;28;19912;-65
2022/01/12 15:10:18;;;;;;;;;;;23.10;39.10;;;;;;5092821;28;19995;-64
2022/01/12 15:12:43;;;;;;;;;;;23.10;39.10;;;;;;5126658;27;20015;-65
2022/01/12 15:15:10;;;;;;;;;;;23.10;39.10;;;;;;5093042;28;19995;-64
2022/01/12 15:17:38;;;;;;;;;;;23.10;39.10;;;;;;5094075;28;20447;-65
2022/01/12 15:20:08;;;;;;;;;;;23.10;39.10;;;;;;5125420;27;20329;-64
2022/01/12 15:22:37;;;;;;;;;;;23.10;39.10;;;;;;5091908;28;19916;-64